EETN/TLL METAR and TAF weather

Enter ICAO airport designator
Station Type Date Time Source
EETN METAR 2020/11/27 14:20 UTC NOAA

EETN 271420Z 36008KT 330V040 9999 -SHRA BKN014 SCT019CB 02/M00 Q1014 R08/290195 TEMPO 3000 SHSNRA


Station Type Date Time Source
EETN Decoded METAR 2020/11/27 14:20 UTC NOAA

Tallinn, Estonia (EETN) 59-24N 024-49E 34M
Nov 27, 2020 - 09:20 AM EST / 2020.11.27 1420 UTC
Wind: from the N (360 degrees) at 9 MPH (8 KT) (direction variable):0
Visibility: greater than 7 mile(s):0
Sky conditions: mostly cloudy
Weather: light rain showers; Cumulonimbus clouds observed
Temperature: 35 F (2 C)
Windchill: 28 F (-2 C):1
Dew Point: 32 F (0 C)
Relative Humidity: 86%
Pressure (altimeter): 29.94 in. Hg (1014 hPa)
ob: EETN 271420Z 36008KT 330V040 9999 -SHRA BKN014 SCT019CB 02/M00 Q1014 R08/290195 TEMPO 3000 SHSNRA
cycle: 14

Station Type Date Time Source
EETN TAF 2020/11/27 12:36 UTC NOAA

TAF TAF EETN 271130Z 2712/2812 02012KT 9999 SCT015 OVC020
TEMPO
TEMPO 2712/2720 3000 SHRASN BKN008 SCT020CB
TEMPO 2714/2721 01016G26KT
TEMPO 2802/2812 3000 SNRA BKN008 OVC015

Example: see airport list